sensor_id;sensor_type;location;lat;lon;timestamp;P1;durP1;ratioP1;P2;durP2;ratioP2
64500;SDS011;50874;24.150;-110.320;2023-05-15T00:00:44;18.20;;;3.38;;
64500;SDS011;50874;24.150;-110.320;2023-05-15T00:03:11;16.23;;;3.70;;
64500;SDS011;50874;24.150;-110.320;2023-05-15T00:05:38;16.60;;;3.60;;
64500;SDS011;50874;24.150;-110.320;2023-05-15T00:08:04;12.27;;;3.40;;
64500;SDS011;50874;24.150;-110.320;2023-05-15T00:10:31;16.25;;;4.07;;
64500;SDS011;50874;24.150;-110.320;2023-05-15T00:12:58;14.65;;;3.88;;
64500;SDS011;50874;24.150;-110.320;2023-05-15T00:15:24;18.02;;;3.13;;
64500;SDS011;50874;24.150;-110.320;2023-05-15T00:17:50;17.48;;;3.33;;
64500;SDS011;50874;24.150;-110.320;2023-05-15T00:20:17;16.67;;;3.55;;
64500;SDS011;50874;24.150;-110.320;2023-05-15T00:22:43;15.32;;;3.83;;
64500;SDS011;50874;24.150;-110.320;2023-05-15T00:25:10;15.27;;;4.40;;
64500;SDS011;50874;24.150;-110.320;2023-05-15T00:27:36;19.38;;;3.60;;
64500;SDS011;50874;24.150;-110.320;2023-05-15T00:30:03;18.88;;;3.83;;
64500;SDS011;50874;24.150;-110.320;2023-05-15T00:32:30;14.45;;;3.90;;
64500;SDS011;50874;24.150;-110.320;2023-05-15T00:34:56;18.63;;;4.50;;
64500;SDS011;50874;24.150;-110.320;2023-05-15T00:37:23;21.75;;;3.75;;
64500;SDS011;50874;24.150;-110.320;2023-05-15T00:39:49;19.02;;;3.80;;
64500;SDS011;50874;24.150;-110.320;2023-05-15T00:42:16;13.40;;;3.60;;
64500;SDS011;50874;24.150;-110.320;2023-05-15T00:44:43;22.02;;;4.18;;
64500;SDS011;50874;24.150;-110.320;2023-05-15T00:47:10;15.25;;;3.25;;
64500;SDS011;50874;24.150;-110.320;2023-05-15T00:49:38;13.68;;;3.50;;
64500;SDS011;50874;24.150;-110.320;2023-05-15T00:52:05;15.75;;;3.30;;
64500;SDS011;50874;24.150;-110.320;2023-05-15T00:54:33;17.02;;;3.88;;
64500;SDS011;50874;24.150;-110.320;2023-05-15T00:56:59;22.63;;;3.65;;
64500;SDS011;50874;24.150;-110.320;2023-05-15T00:59:28;22.33;;;4.35;;
64500;SDS011;50874;24.150;-110.320;2023-05-15T01:01:56;19.95;;;4.40;;
64500;SDS011;50874;24.150;-110.320;2023-05-15T01:04:22;14.50;;;4.20;;
64500;SDS011;50874;24.150;-110.320;2023-05-15T01:06:49;16.55;;;3.53;;
64500;SDS011;50874;24.150;-110.320;2023-05-15T01:09:19;20.98;;;3.65;;
64500;SDS011;50874;24.150;-110.320;2023-05-15T01:11:49;19.45;;;3.88;;
64500;SDS011;50874;24.150;-110.320;2023-05-15T01:14:18;17.58;;;3.55;;
64500;SDS011;50874;24.150;-110.320;2023-05-15T01:16:44;18.08;;;4.10;;
64500;SDS011;50874;24.150;-110.320;2023-05-15T01:19:11;17.83;;;3.72;;
64500;SDS011;50874;24.150;-110.320;2023-05-15T01:26:53;21.23;;;3.53;;
64500;SDS011;50874;24.150;-110.320;2023-05-15T01:29:43;30.67;;;4.10;;
64500;SDS011;50874;24.150;-110.320;2023-05-15T01:32:27;18.13;;;4.13;;
64500;SDS011;50874;24.150;-110.320;2023-05-15T01:35:05;16.83;;;3.80;;
64500;SDS011;50874;24.150;-110.320;2023-05-15T01:37:48;21.67;;;4.07;;
64500;SDS011;50874;24.150;-110.320;2023-05-15T01:40:20;18.05;;;3.33;;
64500;SDS011;50874;24.150;-110.320;2023-05-15T01:42:56;12.70;;;4.00;;
64500;SDS011;50874;24.150;-110.320;2023-05-15T01:45:28;20.30;;;4.43;;
64500;SDS011;50874;24.150;-110.320;2023-05-15T01:47:55;22.60;;;3.78;;
64500;SDS011;50874;24.150;-110.320;2023-05-15T01:50:23;18.55;;;4.47;;
64500;SDS011;50874;24.150;-110.320;2023-05-15T01:52:56;19.20;;;3.88;;
64500;SDS011;50874;24.150;-110.320;2023-05-15T01:55:25;19.93;;;3.30;;
64500;SDS011;50874;24.150;-110.320;2023-05-15T01:57:52;24.27;;;4.53;;
64500;SDS011;50874;24.150;-110.320;2023-05-15T02:00:20;14.40;;;4.78;;
64500;SDS011;50874;24.150;-110.320;2023-05-15T02:02:47;24.83;;;4.22;;
64500;SDS011;50874;24.150;-110.320;2023-05-15T02:05:15;19.35;;;3.92;;
64500;SDS011;50874;24.150;-110.320;2023-05-15T02:07:42;21.50;;;3.70;;
64500;SDS011;50874;24.150;-110.320;2023-05-15T02:10:10;18.67;;;4.65;;
64500;SDS011;50874;24.150;-110.320;2023-05-15T02:12:38;14.05;;;3.63;;
64500;SDS011;50874;24.150;-110.320;2023-05-15T02:15:06;25.95;;;4.53;;
64500;SDS011;50874;24.150;-110.320;2023-05-15T02:17:34;22.50;;;3.63;;
64500;SDS011;50874;24.150;-110.320;2023-05-15T02:20:01;27.92;;;4.30;;
64500;SDS011;50874;24.150;-110.320;2023-05-15T02:22:30;28.30;;;6.03;;
64500;SDS011;50874;24.150;-110.320;2023-05-15T02:24:56;19.48;;;4.13;;
64500;SDS011;50874;24.150;-110.320;2023-05-15T02:27:26;25.90;;;4.70;;
64500;SDS011;50874;24.150;-110.320;2023-05-15T02:38:28;17.00;;;3.95;;
64500;SDS011;50874;24.150;-110.320;2023-05-15T02:41:00;24.38;;;4.00;;
64500;SDS011;50874;24.150;-110.320;2023-05-15T02:43:27;19.90;;;4.53;;
64500;SDS011;50874;24.150;-110.320;2023-05-15T02:45:55;22.42;;;4.47;;
64500;SDS011;50874;24.150;-110.320;2023-05-15T02:48:22;22.25;;;4.35;;
64500;SDS011;50874;24.150;-110.320;2023-05-15T02:50:50;30.30;;;5.65;;
64500;SDS011;50874;24.150;-110.320;2023-05-15T02:53:17;21.98;;;4.13;;
64500;SDS011;50874;24.150;-110.320;2023-05-15T02:55:43;23.67;;;4.47;;
64500;SDS011;50874;24.150;-110.320;2023-05-15T02:58:09;27.35;;;4.43;;
64500;SDS011;50874;24.150;-110.320;2023-05-15T03:00:36;36.75;;;5.63;;
64500;SDS011;50874;24.150;-110.320;2023-05-15T03:03:03;27.75;;;5.32;;
64500;SDS011;50874;24.150;-110.320;2023-05-15T03:05:32;18.67;;;4.00;;
64500;SDS011;50874;24.150;-110.320;2023-05-15T03:07:58;22.27;;;3.88;;
64500;SDS011;50874;24.150;-110.320;2023-05-15T03:10:25;23.60;;;4.60;;
64500;SDS011;50874;24.150;-110.320;2023-05-15T03:12:54;29.13;;;4.78;;
64500;SDS011;50874;24.150;-110.320;2023-05-15T03:15:24;24.50;;;4.63;;
64500;SDS011;50874;24.150;-110.320;2023-05-15T03:17:53;17.08;;;3.67;;
64500;SDS011;50874;24.150;-110.320;2023-05-15T03:20:20;21.05;;;4.47;;
64500;SDS011;50874;24.150;-110.320;2023-05-15T03:22:46;13.23;;;3.58;;
64500;SDS011;50874;24.150;-110.320;2023-05-15T03:25:12;21.10;;;3.75;;
64500;SDS011;50874;24.150;-110.320;2023-05-15T03:27:39;24.55;;;4.38;;
64500;SDS011;50874;24.150;-110.320;2023-05-15T03:30:05;17.85;;;4.28;;
64500;SDS011;50874;24.150;-110.320;2023-05-15T03:32:32;24.50;;;5.03;;
64500;SDS011;50874;24.150;-110.320;2023-05-15T03:34:59;30.15;;;5.35;;
64500;SDS011;50874;24.150;-110.320;2023-05-15T03:37:25;25.00;;;4.43;;
64500;SDS011;50874;24.150;-110.320;2023-05-15T03:39:52;16.73;;;4.40;;
64500;SDS011;50874;24.150;-110.320;2023-05-15T03:42:18;27.20;;;4.18;;
64500;SDS011;50874;24.150;-110.320;2023-05-15T03:44:48;20.95;;;3.38;;
64500;SDS011;50874;24.150;-110.320;2023-05-15T03:47:15;17.27;;;4.13;;
64500;SDS011;50874;24.150;-110.320;2023-05-15T03:49:41;19.77;;;3.97;;
64500;SDS011;50874;24.150;-110.320;2023-05-15T03:52:08;24.10;;;3.97;;
64500;SDS011;50874;24.150;-110.320;2023-05-15T03:54:34;27.08;;;6.10;;
64500;SDS011;50874;24.150;-110.320;2023-05-15T03:57:01;21.95;;;4.82;;
64500;SDS011;50874;24.150;-110.320;2023-05-15T03:59:31;21.45;;;4.32;;
64500;SDS011;50874;24.150;-110.320;2023-05-15T04:01:57;24.45;;;4.47;;
64500;SDS011;50874;24.150;-110.320;2023-05-15T04:04:24;24.73;;;4.85;;
64500;SDS011;50874;24.150;-110.320;2023-05-15T04:06:50;17.45;;;4.00;;
64500;SDS011;50874;24.150;-110.320;2023-05-15T04:09:16;26.00;;;4.80;;
64500;SDS011;50874;24.150;-110.320;2023-05-15T04:11:43;25.67;;;4.80;;
64500;SDS011;50874;24.150;-110.320;2023-05-15T04:14:11;26.58;;;5.78;;
64500;SDS011;50874;24.150;-110.320;2023-05-15T04:16:37;20.05;;;5.07;;
64500;SDS011;50874;24.150;-110.320;2023-05-15T04:19:04;28.95;;;5.63;;
64500;SDS011;50874;24.150;-110.320;2023-05-15T04:21:30;21.00;;;4.53;;
64500;SDS011;50874;24.150;-110.320;2023-05-15T04:23:57;20.38;;;4.13;;
64500;SDS011;50874;24.150;-110.320;2023-05-15T04:26:23;21.20;;;4.20;;
64500;SDS011;50874;24.150;-110.320;2023-05-15T04:28:50;17.60;;;4.53;;
64500;SDS011;50874;24.150;-110.320;2023-05-15T04:31:16;24.08;;;5.07;;
64500;SDS011;50874;24.150;-110.320;2023-05-15T04:33:43;24.65;;;4.75;;
64500;SDS011;50874;24.150;-110.320;2023-05-15T04:36:09;28.08;;;4.43;;
64500;SDS011;50874;24.150;-110.320;2023-05-15T04:38:36;18.70;;;5.10;;
64500;SDS011;50874;24.150;-110.320;2023-05-15T04:41:02;27.17;;;4.50;;
64500;SDS011;50874;24.150;-110.320;2023-05-15T04:43:29;21.65;;;4.70;;
64500;SDS011;50874;24.150;-110.320;2023-05-15T04:45:55;27.27;;;5.18;;
64500;SDS011;50874;24.150;-110.320;2023-05-15T04:48:22;21.23;;;4.75;;
64500;SDS011;50874;24.150;-110.320;2023-05-15T04:50:48;20.10;;;4.72;;
64500;SDS011;50874;24.150;-110.320;2023-05-15T04:53:16;14.77;;;3.45;;
64500;SDS011;50874;24.150;-110.320;2023-05-15T04:55:42;27.42;;;4.72;;
64500;SDS011;50874;24.150;-110.320;2023-05-15T04:58:08;29.60;;;4.78;;
64500;SDS011;50874;24.150;-110.320;2023-05-15T05:00:35;29.08;;;5.30;;
64500;SDS011;50874;24.150;-110.320;2023-05-15T05:03:01;20.90;;;4.13;;
64500;SDS011;50874;24.150;-110.320;2023-05-15T05:05:29;18.30;;;4.95;;
64500;SDS011;50874;24.150;-110.320;2023-05-15T05:07:55;20.10;;;4.47;;
64500;SDS011;50874;24.150;-110.320;2023-05-15T05:10:22;23.60;;;5.00;;
64500;SDS011;50874;24.150;-110.320;2023-05-15T05:12:48;23.52;;;5.07;;
64500;SDS011;50874;24.150;-110.320;2023-05-15T05:15:15;19.02;;;4.38;;
64500;SDS011;50874;24.150;-110.320;2023-05-15T05:17:41;25.30;;;5.95;;
64500;SDS011;50874;24.150;-110.320;2023-05-15T05:20:08;26.75;;;5.03;;
64500;SDS011;50874;24.150;-110.320;2023-05-15T05:22:35;20.02;;;4.68;;
64500;SDS011;50874;24.150;-110.320;2023-05-15T05:25:02;15.48;;;4.15;;
64500;SDS011;50874;24.150;-110.320;2023-05-15T05:27:29;22.35;;;4.55;;
64500;SDS011;50874;24.150;-110.320;2023-05-15T05:29:55;20.00;;;4.38;;
64500;SDS011;50874;24.150;-110.320;2023-05-15T05:32:22;16.02;;;3.80;;
64500;SDS011;50874;24.150;-110.320;2023-05-15T05:34:48;16.02;;;3.50;;
64500;SDS011;50874;24.150;-110.320;2023-05-15T05:37:14;13.73;;;3.75;;
64500;SDS011;50874;24.150;-110.320;2023-05-15T05:39:41;17.40;;;4.20;;
64500;SDS011;50874;24.150;-110.320;2023-05-15T05:42:07;28.20;;;4.43;;
64500;SDS011;50874;24.150;-110.320;2023-05-15T05:44:34;20.88;;;4.85;;
64500;SDS011;50874;24.150;-110.320;2023-05-15T05:47:00;20.00;;;4.05;;
64500;SDS011;50874;24.150;-110.320;2023-05-15T05:49:26;18.92;;;3.92;;
64500;SDS011;50874;24.150;-110.320;2023-05-15T05:51:53;24.08;;;5.35;;
64500;SDS011;50874;24.150;-110.320;2023-05-15T05:54:19;25.48;;;4.35;;
64500;SDS011;50874;24.150;-110.320;2023-05-15T05:56:46;24.67;;;4.97;;
64500;SDS011;50874;24.150;-110.320;2023-05-15T05:59:12;16.27;;;4.43;;
64500;SDS011;50874;24.150;-110.320;2023-05-15T06:01:39;29.33;;;4.95;;
64500;SDS011;50874;24.150;-110.320;2023-05-15T06:04:06;21.00;;;4.68;;
64500;SDS011;50874;24.150;-110.320;2023-05-15T06:06:33;17.92;;;5.07;;
64500;SDS011;50874;24.150;-110.320;2023-05-15T06:08:59;26.77;;;6.00;;
64500;SDS011;50874;24.150;-110.320;2023-05-15T06:11:26;23.83;;;4.63;;
64500;SDS011;50874;24.150;-110.320;2023-05-15T06:13:52;20.45;;;4.25;;
64500;SDS011;50874;24.150;-110.320;2023-05-15T06:16:19;21.55;;;4.45;;
64500;SDS011;50874;24.150;-110.320;2023-05-15T06:18:45;22.10;;;4.40;;
64500;SDS011;50874;24.150;-110.320;2023-05-15T06:21:12;18.15;;;4.20;;
64500;SDS011;50874;24.150;-110.320;2023-05-15T06:23:38;22.83;;;4.57;;
64500;SDS011;50874;24.150;-110.320;2023-05-15T06:26:05;16.80;;;4.40;;
64500;SDS011;50874;24.150;-110.320;2023-05-15T06:28:31;19.55;;;4.07;;
64500;SDS011;50874;24.150;-110.320;2023-05-15T06:30:58;17.20;;;5.20;;
64500;SDS011;50874;24.150;-110.320;2023-05-15T06:33:24;24.10;;;5.20;;
64500;SDS011;50874;24.150;-110.320;2023-05-15T06:35:51;16.13;;;4.78;;
64500;SDS011;50874;24.150;-110.320;2023-05-15T06:38:17;24.67;;;4.63;;
64500;SDS011;50874;24.150;-110.320;2023-05-15T06:40:44;24.60;;;4.25;;
64500;SDS011;50874;24.150;-110.320;2023-05-15T06:43:10;19.83;;;4.32;;
64500;SDS011;50874;24.150;-110.320;2023-05-15T06:45:37;22.40;;;5.95;;
64500;SDS011;50874;24.150;-110.320;2023-05-15T06:48:04;25.67;;;5.40;;
64500;SDS011;50874;24.150;-110.320;2023-05-15T06:50:30;21.00;;;4.05;;
64500;SDS011;50874;24.150;-110.320;2023-05-15T06:52:58;20.85;;;4.82;;
64500;SDS011;50874;24.150;-110.320;2023-05-15T06:55:25;30.02;;;5.22;;
64500;SDS011;50874;24.150;-110.320;2023-05-15T06:57:51;19.70;;;4.68;;
64500;SDS011;50874;24.150;-110.320;2023-05-15T07:00:18;22.70;;;5.07;;
64500;SDS011;50874;24.150;-110.320;2023-05-15T07:02:45;26.30;;;5.43;;
64500;SDS011;50874;24.150;-110.320;2023-05-15T07:05:12;38.42;;;6.90;;
64500;SDS011;50874;24.150;-110.320;2023-05-15T07:07:39;22.88;;;4.80;;
64500;SDS011;50874;24.150;-110.320;2023-05-15T07:10:05;33.40;;;5.32;;
64500;SDS011;50874;24.150;-110.320;2023-05-15T07:12:32;18.08;;;4.40;;
64500;SDS011;50874;24.150;-110.320;2023-05-15T07:14:59;18.17;;;4.22;;
64500;SDS011;50874;24.150;-110.320;2023-05-15T07:17:25;20.83;;;4.63;;
64500;SDS011;50874;24.150;-110.320;2023-05-15T07:19:52;14.82;;;4.47;;
64500;SDS011;50874;24.150;-110.320;2023-05-15T07:22:19;23.55;;;4.95;;
64500;SDS011;50874;24.150;-110.320;2023-05-15T07:24:45;26.92;;;5.63;;
64500;SDS011;50874;24.150;-110.320;2023-05-15T07:27:11;27.17;;;4.95;;
64500;SDS011;50874;24.150;-110.320;2023-05-15T07:29:38;16.27;;;5.45;;
64500;SDS011;50874;24.150;-110.320;2023-05-15T07:32:05;23.55;;;5.57;;
64500;SDS011;50874;24.150;-110.320;2023-05-15T07:34:31;23.48;;;4.47;;
64500;SDS011;50874;24.150;-110.320;2023-05-15T07:36:58;14.95;;;5.78;;
64500;SDS011;50874;24.150;-110.320;2023-05-15T07:39:24;21.75;;;4.18;;
64500;SDS011;50874;24.150;-110.320;2023-05-15T07:41:51;26.83;;;4.38;;
64500;SDS011;50874;24.150;-110.320;2023-05-15T07:44:17;21.73;;;4.93;;
64500;SDS011;50874;24.150;-110.320;2023-05-15T07:46:43;15.95;;;4.10;;
64500;SDS011;50874;24.150;-110.320;2023-05-15T07:49:10;16.77;;;5.43;;
64500;SDS011;50874;24.150;-110.320;2023-05-15T07:51:36;20.50;;;5.78;;
64500;SDS011;50874;24.150;-110.320;2023-05-15T07:54:03;26.98;;;4.70;;
64500;SDS011;50874;24.150;-110.320;2023-05-15T07:56:30;30.77;;;5.22;;
64500;SDS011;50874;24.150;-110.320;2023-05-15T07:58:57;25.63;;;5.28;;
64500;SDS011;50874;24.150;-110.320;2023-05-15T08:01:23;17.25;;;5.38;;
64500;SDS011;50874;24.150;-110.320;2023-05-15T08:03:50;17.58;;;4.75;;
64500;SDS011;50874;24.150;-110.320;2023-05-15T08:06:16;26.33;;;4.38;;
64500;SDS011;50874;24.150;-110.320;2023-05-15T08:08:43;21.48;;;4.22;;
64500;SDS011;50874;24.150;-110.320;2023-05-15T08:11:09;23.13;;;5.80;;
64500;SDS011;50874;24.150;-110.320;2023-05-15T08:13:36;22.00;;;6.03;;
64500;SDS011;50874;24.150;-110.320;2023-05-15T08:16:02;18.35;;;4.05;;
64500;SDS011;50874;24.150;-110.320;2023-05-15T08:18:29;27.70;;;4.47;;
64500;SDS011;50874;24.150;-110.320;2023-05-15T08:20:56;24.15;;;4.97;;
64500;SDS011;50874;24.150;-110.320;2023-05-15T08:23:22;25.10;;;4.32;;
64500;SDS011;50874;24.150;-110.320;2023-05-15T08:25:48;22.67;;;5.00;;
64500;SDS011;50874;24.150;-110.320;2023-05-15T08:28:15;27.23;;;5.53;;
64500;SDS011;50874;24.150;-110.320;2023-05-15T08:30:41;23.90;;;4.90;;
64500;SDS011;50874;24.150;-110.320;2023-05-15T08:33:08;20.35;;;4.63;;
64500;SDS011;50874;24.150;-110.320;2023-05-15T08:35:34;21.50;;;5.35;;
64500;SDS011;50874;24.150;-110.320;2023-05-15T08:38:01;25.85;;;5.38;;
64500;SDS011;50874;24.150;-110.320;2023-05-15T08:40:27;25.17;;;4.68;;
64500;SDS011;50874;24.150;-110.320;2023-05-15T08:42:54;25.85;;;4.97;;
64500;SDS011;50874;24.150;-110.320;2023-05-15T08:45:25;24.80;;;6.43;;
64500;SDS011;50874;24.150;-110.320;2023-05-15T08:47:52;24.52;;;4.95;;
64500;SDS011;50874;24.150;-110.320;2023-05-15T08:50:19;26.83;;;5.95;;
64500;SDS011;50874;24.150;-110.320;2023-05-15T08:52:47;26.33;;;4.60;;
64500;SDS011;50874;24.150;-110.320;2023-05-15T08:55:15;23.58;;;5.32;;
64500;SDS011;50874;24.150;-110.320;2023-05-15T08:57:42;31.23;;;5.60;;
64500;SDS011;50874;24.150;-110.320;2023-05-15T09:00:09;20.48;;;5.00;;
64500;SDS011;50874;24.150;-110.320;2023-05-15T09:02:39;20.65;;;5.82;;
64500;SDS011;50874;24.150;-110.320;2023-05-15T09:05:07;21.73;;;6.43;;
64500;SDS011;50874;24.150;-110.320;2023-05-15T09:07:34;26.52;;;6.07;;
64500;SDS011;50874;24.150;-110.320;2023-05-15T09:10:02;26.83;;;6.43;;
64500;SDS011;50874;24.150;-110.320;2023-05-15T09:12:31;26.60;;;5.95;;
64500;SDS011;50874;24.150;-110.320;2023-05-15T09:15:08;19.48;;;4.60;;
64500;SDS011;50874;24.150;-110.320;2023-05-15T09:17:37;23.42;;;5.40;;
64500;SDS011;50874;24.150;-110.320;2023-05-15T09:20:04;28.08;;;5.95;;
64500;SDS011;50874;24.150;-110.320;2023-05-15T09:22:33;25.98;;;5.57;;
64500;SDS011;50874;24.150;-110.320;2023-05-15T09:25:00;20.38;;;5.07;;
64500;SDS011;50874;24.150;-110.320;2023-05-15T09:27:28;15.13;;;4.82;;
64500;SDS011;50874;24.150;-110.320;2023-05-15T09:29:55;27.05;;;5.45;;
64500;SDS011;50874;24.150;-110.320;2023-05-15T09:32:34;19.60;;;5.25;;
64500;SDS011;50874;24.150;-110.320;2023-05-15T09:35:01;15.70;;;5.05;;
64500;SDS011;50874;24.150;-110.320;2023-05-15T09:37:28;17.52;;;4.90;;
64500;SDS011;50874;24.150;-110.320;2023-05-15T09:40:05;18.83;;;4.80;;
64500;SDS011;50874;24.150;-110.320;2023-05-15T09:42:36;17.27;;;5.15;;
64500;SDS011;50874;24.150;-110.320;2023-05-15T09:45:03;22.13;;;5.32;;
64500;SDS011;50874;24.150;-110.320;2023-05-15T09:47:30;20.52;;;6.05;;
64500;SDS011;50874;24.150;-110.320;2023-05-15T09:49:57;19.17;;;5.05;;
64500;SDS011;50874;24.150;-110.320;2023-05-15T09:52:24;25.98;;;5.70;;
64500;SDS011;50874;24.150;-110.320;2023-05-15T09:54:53;20.10;;;5.43;;
64500;SDS011;50874;24.150;-110.320;2023-05-15T09:57:21;20.05;;;5.50;;
64500;SDS011;50874;24.150;-110.320;2023-05-15T09:59:47;25.48;;;6.22;;
64500;SDS011;50874;24.150;-110.320;2023-05-15T10:02:26;20.50;;;5.15;;
64500;SDS011;50874;24.150;-110.320;2023-05-15T10:04:58;21.73;;;5.38;;
64500;SDS011;50874;24.150;-110.320;2023-05-15T10:07:33;24.30;;;5.85;;
64500;SDS011;50874;24.150;-110.320;2023-05-15T10:10:01;22.75;;;5.00;;
64500;SDS011;50874;24.150;-110.320;2023-05-15T10:12:32;24.92;;;5.43;;
64500;SDS011;50874;24.150;-110.320;2023-05-15T10:15:01;27.77;;;5.60;;
64500;SDS011;50874;24.150;-110.320;2023-05-15T10:17:30;13.00;;;4.65;;
64500;SDS011;50874;24.150;-110.320;2023-05-15T10:19:59;27.35;;;6.38;;
64500;SDS011;50874;24.150;-110.320;2023-05-15T10:22:31;20.35;;;6.47;;
64500;SDS011;50874;24.150;-110.320;2023-05-15T10:25:07;23.58;;;5.85;;
64500;SDS011;50874;24.150;-110.320;2023-05-15T10:27:40;26.33;;;5.43;;
64500;SDS011;50874;24.150;-110.320;2023-05-15T10:30:08;30.27;;;6.70;;
64500;SDS011;50874;24.150;-110.320;2023-05-15T10:32:36;29.33;;;6.70;;
64500;SDS011;50874;24.150;-110.320;2023-05-15T10:35:06;27.55;;;5.55;;
64500;SDS011;50874;24.150;-110.320;2023-05-15T10:37:35;25.42;;;5.47;;
64500;SDS011;50874;24.150;-110.320;2023-05-15T10:40:03;21.48;;;6.47;;
64500;SDS011;50874;24.150;-110.320;2023-05-15T10:42:33;36.75;;;7.38;;
64500;SDS011;50874;24.150;-110.320;2023-05-15T10:45:01;21.98;;;7.05;;
64500;SDS011;50874;24.150;-110.320;2023-05-15T10:47:29;27.38;;;6.53;;
64500;SDS011;50874;24.150;-110.320;2023-05-15T10:49:56;18.50;;;5.47;;
64500;SDS011;50874;24.150;-110.320;2023-05-15T10:52:23;26.77;;;7.22;;
64500;SDS011;50874;24.150;-110.320;2023-05-15T10:54:51;38.53;;;8.02;;
64500;SDS011;50874;24.150;-110.320;2023-05-15T10:57:21;27.90;;;7.70;;
64500;SDS011;50874;24.150;-110.320;2023-05-15T10:59:48;22.80;;;7.28;;
64500;SDS011;50874;24.150;-110.320;2023-05-15T11:02:19;29.25;;;7.55;;
64500;SDS011;50874;24.150;-110.320;2023-05-15T11:04:57;33.15;;;7.80;;
64500;SDS011;50874;24.150;-110.320;2023-05-15T11:07:25;24.45;;;7.85;;
64500;SDS011;50874;24.150;-110.320;2023-05-15T11:09:53;19.85;;;6.97;;
64500;SDS011;50874;24.150;-110.320;2023-05-15T11:12:20;29.90;;;8.13;;
64500;SDS011;50874;24.150;-110.320;2023-05-15T11:17:23;26.52;;;7.50;;
64500;SDS011;50874;24.150;-110.320;2023-05-15T11:22:20;32.35;;;6.93;;
64500;SDS011;50874;24.150;-110.320;2023-05-15T11:30:03;26.52;;;7.85;;
64500;SDS011;50874;24.150;-110.320;2023-05-15T11:32:32;30.05;;;7.45;;
64500;SDS011;50874;24.150;-110.320;2023-05-15T11:37:54;26.27;;;7.03;;
64500;SDS011;50874;24.150;-110.320;2023-05-15T11:40:22;25.85;;;7.25;;
64500;SDS011;50874;24.150;-110.320;2023-05-15T11:43:01;31.30;;;7.90;;
64500;SDS011;50874;24.150;-110.320;2023-05-15T11:45:30;25.23;;;6.63;;
64500;SDS011;50874;24.150;-110.320;2023-05-15T11:48:05;27.15;;;7.72;;
64500;SDS011;50874;24.150;-110.320;2023-05-15T11:50:33;33.80;;;6.78;;
64500;SDS011;50874;24.150;-110.320;2023-05-15T11:53:07;28.23;;;7.32;;
64500;SDS011;50874;24.150;-110.320;2023-05-15T11:55:35;24.65;;;6.38;;
64500;SDS011;50874;24.150;-110.320;2023-05-15T11:58:04;33.08;;;7.78;;
64500;SDS011;50874;24.150;-110.320;2023-05-15T12:00:35;31.30;;;7.85;;
64500;SDS011;50874;24.150;-110.320;2023-05-15T12:03:01;27.42;;;7.68;;
64500;SDS011;50874;24.150;-110.320;2023-05-15T12:05:28;21.63;;;7.28;;
64500;SDS011;50874;24.150;-110.320;2023-05-15T12:07:55;27.15;;;7.35;;
64500;SDS011;50874;24.150;-110.320;2023-05-15T12:10:23;33.47;;;7.95;;
64500;SDS011;50874;24.150;-110.320;2023-05-15T12:12:49;27.27;;;7.97;;
64500;SDS011;50874;24.150;-110.320;2023-05-15T12:15:16;27.77;;;7.68;;
64500;SDS011;50874;24.150;-110.320;2023-05-15T12:17:43;25.40;;;7.47;;
64500;SDS011;50874;24.150;-110.320;2023-05-15T12:20:11;29.08;;;7.07;;
64500;SDS011;50874;24.150;-110.320;2023-05-15T12:22:43;24.70;;;7.82;;
64500;SDS011;50874;24.150;-110.320;2023-05-15T12:25:10;20.05;;;7.00;;
64500;SDS011;50874;24.150;-110.320;2023-05-15T12:27:39;16.77;;;6.20;;
64500;SDS011;50874;24.150;-110.320;2023-05-15T12:30:07;30.95;;;7.32;;
64500;SDS011;50874;24.150;-110.320;2023-05-15T12:32:35;26.08;;;6.57;;
64500;SDS011;50874;24.150;-110.320;2023-05-15T12:35:02;23.85;;;8.30;;
64500;SDS011;50874;24.150;-110.320;2023-05-15T12:37:30;27.23;;;7.70;;
64500;SDS011;50874;24.150;-110.320;2023-05-15T12:40:02;28.58;;;8.27;;
64500;SDS011;50874;24.150;-110.320;2023-05-15T12:42:41;26.77;;;7.50;;
64500;SDS011;50874;24.150;-110.320;2023-05-15T12:47:44;22.60;;;6.80;;
64500;SDS011;50874;24.150;-110.320;2023-05-15T12:50:19;28.33;;;6.82;;
64500;SDS011;50874;24.150;-110.320;2023-05-15T12:57:57;22.48;;;7.07;;
64500;SDS011;50874;24.150;-110.320;2023-05-15T13:00:29;28.83;;;7.88;;
64500;SDS011;50874;24.150;-110.320;2023-05-15T13:02:56;24.98;;;6.90;;
64500;SDS011;50874;24.150;-110.320;2023-05-15T13:05:26;24.08;;;6.25;;
64500;SDS011;50874;24.150;-110.320;2023-05-15T13:07:56;21.20;;;6.22;;
64500;SDS011;50874;24.150;-110.320;2023-05-15T13:10:31;29.55;;;6.80;;
64500;SDS011;50874;24.150;-110.320;2023-05-15T13:12:58;21.27;;;5.93;;
64500;SDS011;50874;24.150;-110.320;2023-05-15T13:15:27;27.67;;;6.45;;
64500;SDS011;50874;24.150;-110.320;2023-05-15T13:17:59;25.20;;;5.75;;
64500;SDS011;50874;24.150;-110.320;2023-05-15T13:20:43;23.40;;;5.75;;
64500;SDS011;50874;24.150;-110.320;2023-05-15T13:23:19;32.05;;;5.25;;
64500;SDS011;50874;24.150;-110.320;2023-05-15T13:25:49;23.77;;;5.53;;
64500;SDS011;50874;24.150;-110.320;2023-05-15T13:28:15;22.70;;;5.63;;
64500;SDS011;50874;24.150;-110.320;2023-05-15T13:30:42;41.83;;;8.43;;
64500;SDS011;50874;24.150;-110.320;2023-05-15T13:33:09;21.90;;;5.53;;
64500;SDS011;50874;24.150;-110.320;2023-05-15T13:35:36;24.60;;;5.18;;
64500;SDS011;50874;24.150;-110.320;2023-05-15T13:38:04;22.55;;;5.28;;
64500;SDS011;50874;24.150;-110.320;2023-05-15T13:40:30;23.80;;;6.07;;
64500;SDS011;50874;24.150;-110.320;2023-05-15T13:42:59;23.02;;;4.78;;
64500;SDS011;50874;24.150;-110.320;2023-05-15T13:45:26;20.42;;;5.55;;
64500;SDS011;50874;24.150;-110.320;2023-05-15T13:47:53;15.82;;;4.72;;
64500;SDS011;50874;24.150;-110.320;2023-05-15T13:50:20;30.98;;;5.82;;
64500;SDS011;50874;24.150;-110.320;2023-05-15T13:52:46;19.20;;;5.25;;
64500;SDS011;50874;24.150;-110.320;2023-05-15T13:55:13;21.13;;;4.70;;
64500;SDS011;50874;24.150;-110.320;2023-05-15T13:57:40;17.55;;;4.65;;
64500;SDS011;50874;24.150;-110.320;2023-05-15T14:00:08;17.60;;;4.50;;
64500;SDS011;50874;24.150;-110.320;2023-05-15T14:02:40;26.55;;;5.43;;
64500;SDS011;50874;24.150;-110.320;2023-05-15T14:05:08;34.20;;;5.07;;
64500;SDS011;50874;24.150;-110.320;2023-05-15T14:07:36;22.40;;;4.90;;
64500;SDS011;50874;24.150;-110.320;2023-05-15T14:10:03;26.15;;;5.10;;
64500;SDS011;50874;24.150;-110.320;2023-05-15T14:12:30;23.70;;;5.00;;
64500;SDS011;50874;24.150;-110.320;2023-05-15T14:14:57;22.70;;;5.03;;
64500;SDS011;50874;24.150;-110.320;2023-05-15T14:17:24;23.70;;;5.18;;
64500;SDS011;50874;24.150;-110.320;2023-05-15T14:19:52;23.38;;;5.95;;
64500;SDS011;50874;24.150;-110.320;2023-05-15T14:22:18;16.90;;;4.93;;
64500;SDS011;50874;24.150;-110.320;2023-05-15T14:24:45;15.60;;;5.35;;
64500;SDS011;50874;24.150;-110.320;2023-05-15T14:27:11;15.95;;;4.82;;
64500;SDS011;50874;24.150;-110.320;2023-05-15T14:29:38;20.88;;;4.82;;
64500;SDS011;50874;24.150;-110.320;2023-05-15T14:32:04;19.33;;;4.68;;
64500;SDS011;50874;24.150;-110.320;2023-05-15T14:34:32;22.73;;;4.35;;